0ksnesvaering — LMCE — position and weather

sailwx.info

Track history (hours):
 
Tides and Currents Weather Stations Pressure Air Temp Water Temp Dewpoint Dewpoint Depression Visibility Wind Speed Wind Dir Waves Ship Positions

0ksnesvaering

Last reported at 2018-Apr-07 19:36 UTC. Time now 2018-Apr-23 23:26 UTC.
Position N 70°45' E 023°31'.
Warning: this ship's position is 16 days out of date.

Length 28 m; draft 5.3 m.

Type: Fishing. MMSI: 257580600.

Date/timePositionNaut miles runAvg speedWind from/ knotsBaromVisibWave heightAir tempDewpointWater temp
2018-Apr-07 19:36N 70°45' E 023°31'2 9.7
2018-Apr-07 19:26N 70°44' E 023°28'610.4
2018-Apr-07 18:53N 70°39' E 023°17'106 3.8
2018-Apr-06 14:55N 69°39' E 018°58'0 0.0
2018-Apr-06 14:29N 69°39' E 018°58'0 0.0
2018-Apr-06 14:00N 69°39' E 018°58'0 0.0
2018-Apr-06 13:30N 69°39' E 018°58'0 0.0
2018-Apr-06 13:00N 69°39' E 018°58'0 0.0
2018-Apr-06 12:30N 69°39' E 018°58'0 0.0
2018-Apr-06 12:00N 69°39' E 018°58'0 0.0
2018-Apr-06 11:30N 69°39' E 018°58'0 0.0
2018-Apr-06 11:00N 69°39' E 018°58'0 0.0
2018-Apr-06 10:30N 69°39' E 018°58'0 0.0
2018-Apr-06 10:00N 69°39' E 018°58'0 0.0
2018-Apr-06 09:30N 69°39' E 018°58'0 0.0
2018-Apr-06 09:00N 69°39' E 018°58'0 0.3
2018-Apr-06 08:30N 69°39' E 018°58'0 0.1
2018-Apr-06 08:00N 69°39' E 018°58'0 0.0
2018-Apr-06 07:30N 69°39' E 018°58'0 0.0
2018-Apr-06 07:00N 69°39' E 018°58'0 0.0
2018-Apr-06 06:30N 69°39' E 018°58'0 0.0
2018-Apr-06 06:00N 69°39' E 018°58'3 5.9
2018-Apr-06 05:30N 69°37' E 018°54'5 9.0
2018-Apr-06 05:00N 69°33' E 018°45'4 8.8
2018-Apr-06 04:29N 69°32' E 018°33'28 8.1
2018-Apr-06 01:00N 69°09' E 017°47'5 9.5
2018-Apr-06 00:26N 69°07' E 017°34'  
Track history (hours):
 
Tides and Currents Weather Stations Pressure Air Temp Water Temp Dewpoint Dewpoint Depression Visibility Wind Speed Wind Dir Waves Ship Positions

0ksnesvaering

Last reported at 2018-Apr-07 19:36 UTC. Time now 2018-Apr-23 23:26 UTC.
Position N 70°45' E 023°31'.
Warning: this ship's position is 16 days out of date.

Length 28 m; draft 5.3 m.

Type: Fishing. MMSI: 257580600.

Date/timePositionNaut miles runAvg speedWind from/ knotsBaromVisibWave heightAir tempDewpointWater temp
2018-Apr-07 19:36N 70°45' E 023°31'2 9.7
2018-Apr-07 19:26N 70°44' E 023°28'610.4
2018-Apr-07 18:53N 70°39' E 023°17'106 3.8
2018-Apr-06 14:55N 69°39' E 018°58'0 0.0
2018-Apr-06 14:29N 69°39' E 018°58'0 0.0
2018-Apr-06 14:00N 69°39' E 018°58'0 0.0
2018-Apr-06 13:30N 69°39' E 018°58'0 0.0
2018-Apr-06 13:00N 69°39' E 018°58'0 0.0
2018-Apr-06 12:30N 69°39' E 018°58'0 0.0
2018-Apr-06 12:00N 69°39' E 018°58'0 0.0
2018-Apr-06 11:30N 69°39' E 018°58'0 0.0
2018-Apr-06 11:00N 69°39' E 018°58'0 0.0
2018-Apr-06 10:30N 69°39' E 018°58'0 0.0
2018-Apr-06 10:00N 69°39' E 018°58'0 0.0
2018-Apr-06 09:30N 69°39' E 018°58'0 0.0
2018-Apr-06 09:00N 69°39' E 018°58'0 0.3
2018-Apr-06 08:30N 69°39' E 018°58'0 0.1
2018-Apr-06 08:00N 69°39' E 018°58'0 0.0
2018-Apr-06 07:30N 69°39' E 018°58'0 0.0
2018-Apr-06 07:00N 69°39' E 018°58'0 0.0
2018-Apr-06 06:30N 69°39' E 018°58'0 0.0
2018-Apr-06 06:00N 69°39' E 018°58'3 5.9
2018-Apr-06 05:30N 69°37' E 018°54'5 9.0
2018-Apr-06 05:00N 69°33' E 018°45'4 8.8
2018-Apr-06 04:29N 69°32' E 018°33'28 8.1
2018-Apr-06 01:00N 69°09' E 017°47'5 9.5
2018-Apr-06 00:26N 69°07' E 017°34'  

Dump ship's entire track history